Main page
METAR-TAF:

METAR-TAF

Airports :

Base Aérea de Armilla

Granada, Spain

latitude: 37-08N, longitude: 003-38-08W, elevation: 700 m

Current weather observation

The report was made 7 hours and 53 minutes ago, at 17:00 UTC
Wind 4 kt from the Southwest, varying between South and West
Temperature 15°C
Humidity 59%
Pressure 1018 hPa
Visibility 10 km or more
Scattered clouds at a height of 6000 ft

METAR: LEGA 251700Z 22004KT 170V270 9999 SCT060 15/07 Q1018

Time: 02:53 (00:53 UTC)

Forecast

The report was made 10 hours and 53 minutes ago, at 14:00 UTC
Forecast valid from 25 at 15 UTC to 25 at 24 UTC
Wind 5 kt from the West/Northwest
Visibility 10 km or more
Few clouds at a height of 2000 ft
Scattered clouds at a height of 3000 ft

TAF: LEGA 251400Z 2515/2524 30005KT 9999 FEW020 SCT030

Weather observations and forecasts of more than 4000 airports (METAR and TAF reports).

The available stations are represented by yellow and red dots on the map.

Hover mouse over dot to see the name of the station.

Then click to see weather observations and forecasts.

To change the map : click on the green buttons with a black cross to zoom in, on the green button with a dash to zoom out, or on the green arrows for adjacent maps.


METAR-TAF: